Terminal Aerodrome Forecast
Issued by NWS

Home | Current Version | Previous Version | Text Only | Print | Product List | Glossary On
Versions: 1 2 3 4 5 6 7 8 9 10 11 12 13 14 15 16 17 18 19 20 21 22
000
FTUS41 KRLX 201100
TAFCKB
TAF
KCKB 201132Z 2012/2112 00000KT P6SM OVC020
     FM201500 04003KT P6SM SCT020 OVC150
     FM210500 00000KT P6SM BKN025
     FM210800 00000KT P6SM BKN018=

USA.gov is the U.S. government's official web portal to all federal, state and local government web resources and services.